Time;durP1;ratioP1;P1;durP2;ratioP2;P2;SDS_P1;SDS_P2;PMS_P1;PMS_P2;Temp;Humidity;BMP_temperature;BMP_pressure;BME280_temperature;BME280_humidity;BME280_pressure;Samples;Min_cycle;Max_cycle;Signal;HPM_P1;HPM_P2
2022/01/12 00:00:07;;;;;;;11.90;8.00;;;;;;;3.55;66.99;101419.13;345348;28;1081;-72
2022/01/12 00:00:21;;;;;;;11.63;7.88;;;;;;;3.51;67.22;101418.16;345012;28;1225;-72
2022/01/12 00:00:38;;;;;;;12.35;8.27;;;;;;;3.51;67.15;101418.16;345001;28;1059;-72
2022/01/12 00:00:51;;;;;;;12.80;8.80;;;;;;;3.47;67.35;101421.50;345014;28;1297;-72
2022/01/12 00:01:05;;;;;;;12.10;8.50;;;;;;;3.46;67.26;101422.34;344890;28;1166;-73
2022/01/12 00:01:19;;;;;;;12.52;8.05;;;;;;;3.47;67.57;101420.63;345001;28;1300;-72
2022/01/12 00:01:32;;;;;;;12.82;8.07;;;;;;;3.49;67.30;101419.84;344876;28;1334;-73
2022/01/12 00:01:44;;;;;;;12.48;8.13;;;;;;;3.48;67.58;101415.53;344926;28;1202;-73
2022/01/12 00:01:57;;;;;;;11.80;7.88;;;;;;;3.50;67.34;101421.59;345057;28;1113;-72
2022/01/12 00:02:09;;;;;;;12.88;8.10;;;;;;;3.50;67.37;101420.69;345003;28;1360;-73
2022/01/12 00:02:21;;;;;;;12.20;8.13;;;;;;;3.51;67.29;101413.03;345479;28;1070;-73
2022/01/12 00:02:34;;;;;;;12.48;8.35;;;;;;;3.51;66.89;101422.44;344981;28;1030;-72
2022/01/12 00:02:46;;;;;;;12.13;7.97;;;;;;;3.52;67.14;101413.88;345209;28;1271;-73
2022/01/12 00:02:59;;;;;;;12.43;7.72;;;;;;;3.53;66.99;101416.50;345053;28;1228;-73
2022/01/12 00:03:11;;;;;;;13.38;8.32;;;;;;;3.53;67.33;101419.06;345010;28;1050;-73
2022/01/12 00:03:24;;;;;;;12.48;8.13;;;;;;;3.53;67.29;101421.66;345075;28;1102;-73
2022/01/12 00:03:37;;;;;;;11.18;7.57;;;;;;;3.54;67.23;101422.50;345076;28;1022;-74
2022/01/12 00:03:49;;;;;;;11.02;7.43;;;;;;;3.53;67.09;101420.78;345195;28;1182;-73
2022/01/12 00:04:02;;;;;;;12.23;8.20;;;;;;;3.49;66.77;101419.84;345041;28;1353;-72
2022/01/12 00:04:14;;;;;;;12.02;8.52;;;;;;;3.47;67.13;101418.94;345069;28;1104;-72
2022/01/12 00:04:26;;;;;;;12.77;8.40;;;;;;;3.49;66.85;101419.84;345220;28;1247;-73
2022/01/12 00:04:39;;;;;;;12.35;8.10;;;;;;;3.47;66.86;101416.34;345132;28;1015;-72
2022/01/12 00:04:53;;;;;;;12.18;8.23;;;;;;;3.43;66.72;101422.25;345152;28;1270;-74
2022/01/12 00:05:06;;;;;;;12.18;8.27;;;;;;;3.40;66.78;101425.63;345307;28;1282;-72
2022/01/12 00:05:19;;;;;;;12.15;7.85;;;;;;;3.42;67.20;101423.09;345237;28;1164;-73
2022/01/12 00:05:31;;;;;;;11.85;7.72;;;;;;;3.45;67.20;101428.31;345032;28;1067;-73
2022/01/12 00:05:43;;;;;;;12.00;8.10;;;;;;;3.49;66.93;101426.69;344999;28;1090;-73
2022/01/12 00:05:55;;;;;;;12.50;8.40;;;;;;;3.50;66.64;101421.59;344961;28;1102;-73
2022/01/12 00:06:08;;;;;;;12.40;8.25;;;;;;;3.45;67.04;101423.16;344892;28;1041;-73
2022/01/12 00:06:20;;;;;;;12.55;8.30;;;;;;;3.47;66.70;101423.22;345304;28;1011;-73
2022/01/12 00:06:32;;;;;;;12.05;8.43;;;;;;;3.45;66.63;101425.72;344948;28;1248;-72
2022/01/12 00:06:44;;;;;;;12.55;8.55;;;;;;;3.47;66.66;101418.94;344954;28;1064;-73
2022/01/12 00:06:56;;;;;;;11.95;8.25;;;;;;;3.45;66.54;101418.03;344914;28;1055;-73
2022/01/12 00:07:08;;;;;;;12.25;8.02;;;;;;;3.47;66.47;101426.63;345296;28;1027;-73
2022/01/12 00:07:20;;;;;;;12.63;8.35;;;;;;;3.50;66.38;101426.72;344948;28;1035;-74
2022/01/12 00:07:32;;;;;;;13.88;8.93;;;;;;;3.48;66.41;101422.38;345349;28;836;-72
2022/01/12 00:07:50;;;;;;;14.80;9.15;;;;;;;3.50;66.53;101431.88;344987;28;1056;-72
2022/01/12 00:08:02;;;;;;;14.75;9.45;;;;;;;3.43;66.60;101419.69;345210;28;1031;-72
2022/01/12 00:08:14;;;;;;;13.60;9.13;;;;;;;3.38;66.59;101426.41;344947;28;1059;-73
2022/01/12 00:08:26;;;;;;;13.25;8.98;;;;;;;3.33;66.46;101423.72;344116;28;1327;-72
2022/01/12 00:08:42;;;;;;;13.00;9.18;;;;;;;3.33;66.64;101423.72;344937;28;1062;-72
2022/01/12 00:08:54;;;;;;;13.70;9.10;;;;;;;3.32;66.48;101429.72;344956;28;1276;-72
2022/01/12 00:09:07;;;;;;;13.57;8.65;;;;;;;3.35;66.50;101426.34;344980;28;1046;-72
2022/01/12 00:09:19;;;;;;;12.40;8.65;;;;;;;3.37;66.61;101424.69;344920;28;1046;-72
2022/01/12 00:09:31;;;;;;;12.27;8.68;;;;;;;3.37;66.71;101419.53;344949;28;1149;-72
2022/01/12 00:09:43;;;;;;;12.90;8.38;;;;;;;3.37;66.68;101420.41;344891;28;1137;-72
2022/01/12 00:09:56;;;;;;;13.45;8.43;;;;;;;3.36;67.37;101422.91;344898;28;1030;-72
2022/01/12 00:10:09;;;;;;;12.77;8.60;;;;;;;3.34;66.56;101420.34;344913;28;1040;-72
2022/01/12 00:10:21;;;;;;;13.75;9.02;;;;;;;3.37;66.68;101422.97;345006;28;1020;-72
2022/01/12 00:10:33;;;;;;;13.82;8.85;;;;;;;3.33;66.97;101422.84;345086;28;1042;-72
2022/01/12 00:10:45;;;;;;;13.55;8.75;;;;;;;3.34;67.15;101419.44;345070;28;1210;-72
2022/01/12 00:11:02;;;;;;;14.30;9.02;;;;;;;3.34;67.20;101420.34;345283;28;1148;-72
2022/01/12 00:11:14;;;;;;;14.25;8.70;;;;;;;3.35;67.54;101423.75;345266;28;1217;-72
2022/01/12 00:11:26;;;;;;;13.80;8.63;;;;;;;3.38;67.48;101426.41;345207;28;1247;-72
2022/01/12 00:11:38;;;;;;;13.50;8.85;;;;;;;3.33;67.22;101418.59;345097;28;1468;-72
2022/01/12 00:11:50;;;;;;;13.13;9.10;;;;;;;3.25;67.56;101424.38;345281;28;1317;-72
2022/01/12 00:12:04;;;;;;;13.35;9.30;;;;;;;3.13;67.85;101417.19;345304;28;1235;-72
2022/01/12 00:12:16;;;;;;;13.55;9.15;;;;;;;3.12;67.55;101418.03;345249;28;1272;-73
2022/01/12 00:12:28;;;;;;;14.13;9.23;;;;;;;3.12;67.71;101416.34;345257;28;1311;-72
2022/01/12 00:12:40;;;;;;;14.63;9.63;;;;;;;3.07;68.03;101424.75;345262;28;1211;-72
2022/01/12 00:12:52;;;;;;;14.63;9.32;;;;;;;3.04;68.35;101422.97;345215;28;1062;-72
2022/01/12 00:13:05;;;;;;;14.48;9.13;;;;;;;3.05;67.83;101421.28;345303;28;1135;-72
2022/01/12 00:13:17;;;;;;;14.70;9.38;;;;;;;3.05;68.19;101417.00;345256;28;1058;-72
2022/01/12 00:13:29;;;;;;;14.20;9.50;;;;;;;3.07;68.39;101419.63;345220;28;1054;-72
2022/01/12 00:13:41;;;;;;;13.35;9.15;;;;;;;3.07;68.15;101415.34;345242;28;1094;-71
2022/01/12 00:13:53;;;;;;;13.85;8.80;;;;;;;3.05;68.40;101419.56;345283;28;1113;-71
2022/01/12 00:14:05;;;;;;;14.00;8.82;;;;;;;3.05;68.60;101419.56;345033;28;1062;-71
2022/01/12 00:14:17;;;;;;;14.18;9.48;;;;;;;3.03;68.43;101418.66;345237;28;1305;-72
2022/01/12 00:14:29;;;;;;;14.30;9.48;;;;;;;3.01;68.77;101420.31;345234;28;1223;-72
2022/01/12 00:14:41;;;;;;;15.93;9.32;;;;;;;3.00;68.60;101419.44;345238;28;1030;-71
2022/01/12 00:14:54;;;;;;;16.40;9.45;;;;;;;3.02;69.01;101418.59;345128;28;1166;-72
2022/01/12 00:15:06;;;;;;;14.88;9.40;;;;;;;2.99;68.94;101421.97;345219;28;1097;-73
2022/01/12 00:15:18;;;;;;;14.30;9.52;;;;;;;2.97;68.70;101421.06;345222;28;1141;-71
2022/01/12 00:15:30;;;;;;;15.07;9.57;;;;;;;2.98;69.29;101415.13;345250;28;1180;-71
2022/01/12 00:15:42;;;;;;;15.65;9.60;;;;;;;2.95;68.72;101420.16;345322;28;1105;-71
2022/01/12 00:15:55;;;;;;;14.88;9.25;;;;;;;2.94;68.44;101419.28;345265;28;1046;-72
2022/01/12 00:16:07;;;;;;;14.13;9.18;;;;;;;2.93;67.80;101416.66;345202;28;1066;-72
2022/01/12 00:16:19;;;;;;;14.77;9.20;;;;;;;2.94;68.22;101418.44;345275;28;1287;-72
2022/01/12 00:16:32;;;;;;;14.88;9.20;;;;;;;2.87;67.54;101416.50;344875;28;1171;-72
2022/01/12 00:16:47;;;;;;;13.70;8.95;;;;;;;2.83;67.38;101419.81;345043;28;1060;-72
2022/01/12 00:17:00;;;;;;;14.00;9.40;;;;;;;2.87;67.61;101422.50;344885;28;1050;-72
2022/01/12 00:17:12;;;;;;;14.25;9.80;;;;;;;2.88;67.17;101420.81;345004;28;1004;-72
2022/01/12 00:17:24;;;;;;;14.05;9.30;;;;;;;2.87;66.98;101422.50;344875;28;1017;-73
2022/01/12 00:17:36;;;;;;;16.42;9.18;;;;;;;2.82;67.27;101418.06;344938;28;1034;-72
2022/01/12 00:17:48;;;;;;;17.35;9.48;;;;;;;2.85;67.01;101425.88;344991;28;1284;-72
2022/01/12 00:18:00;;;;;;;17.50;9.98;;;;;;;2.84;67.10;101421.53;345172;28;1181;-72
2022/01/12 00:18:12;;;;;;;15.13;9.80;;;;;;;2.83;67.13;101424.97;344946;28;1019;-72
2022/01/12 00:18:25;;;;;;;14.38;9.23;;;;;;;2.79;67.17;101422.28;345210;28;1071;-72
2022/01/12 00:18:37;;;;;;;14.15;9.18;;;;;;;2.79;67.10;101419.72;345109;28;1126;-71
2022/01/12 00:18:49;;;;;;;14.50;9.73;;;;;;;2.77;66.96;101415.38;345204;28;1102;-71
2022/01/12 00:19:01;;;;;;;14.00;9.35;;;;;;;2.75;66.94;101422.19;344952;28;1203;-71
2022/01/12 00:19:14;;;;;;;13.13;8.88;;;;;;;2.74;66.82;101420.44;344837;28;1195;-71
2022/01/12 00:19:29;;;;;;;12.57;8.90;;;;;;;2.73;67.12;101419.56;344841;28;1089;-72
2022/01/12 00:19:41;;;;;;;13.95;9.68;;;;;;;2.74;66.85;101416.19;345211;28;1033;-72
2022/01/12 00:19:53;;;;;;;15.35;10.05;;;;;;;2.70;67.33;101416.91;345102;28;1357;-72
2022/01/12 00:20:06;;;;;;;16.67;9.65;;;;;;;2.68;67.55;101420.28;344952;28;1227;-71
2022/01/12 00:20:18;;;;;;;15.95;9.63;;;;;;;2.65;67.52;101410.78;344926;28;1151;-71
2022/01/12 00:20:30;;;;;;;16.17;9.90;;;;;;;2.65;67.54;101415.91;344972;28;1042;-71
2022/01/12 00:20:42;;;;;;;14.88;9.23;;;;;;;2.65;67.58;101413.34;345006;28;1095;-71
2022/01/12 00:20:54;;;;;;;14.30;8.82;;;;;;;2.57;67.55;101428.53;344913;28;1910;-71
2022/01/12 00:21:06;;;;;;;15.23;9.38;;;;;;;2.57;67.62;101422.53;345120;28;1272;-71
2022/01/12 00:21:18;;;;;;;14.90;9.70;;;;;;;2.53;67.77;101415.56;344776;28;1075;-71
2022/01/12 00:21:30;;;;;;;15.00;9.50;;;;;;;2.46;67.44;101423.94;344905;28;1762;-71
2022/01/12 00:21:42;;;;;;;14.48;9.05;;;;;;;2.50;67.67;101420.63;344983;28;1765;-71
2022/01/12 00:21:56;;;;;;;15.35;9.45;;;;;;;2.51;68.21;101417.22;345011;28;1075;-71
2022/01/12 00:22:08;;;;;;;14.95;9.93;;;;;;;2.55;69.35;101419.03;344897;28;1157;-71
2022/01/12 00:22:20;;;;;;;15.88;10.02;;;;;;;2.56;69.46;101420.81;344947;28;1153;-71
2022/01/12 00:22:33;;;;;;;15.80;9.73;;;;;;;2.57;69.83;101422.53;345036;28;1067;-70
2022/01/12 00:22:45;;;;;;;15.55;9.55;;;;;;;2.60;69.73;101417.50;344972;28;1350;-71
2022/01/12 00:22:57;;;;;;;14.88;9.65;;;;;;;2.63;69.63;101416.69;344963;28;1240;-71
2022/01/12 00:23:09;;;;;;;13.00;9.02;;;;;;;2.63;69.76;101412.44;344989;28;1059;-74
2022/01/12 00:23:22;;;;;;;12.98;8.68;;;;;;;2.66;69.69;101412.53;345180;28;1030;-71
2022/01/12 00:23:34;;;;;;;13.00;8.40;;;;;;;2.67;69.45;101419.38;346142;28;1275;-71
2022/01/12 00:23:46;;;;;;;13.52;8.85;;;;;;;2.70;69.61;101419.50;345226;28;1230;-71
2022/01/12 00:23:58;;;;;;;13.30;9.20;;;;;;;2.68;69.59;101416.00;345218;28;1191;-71
2022/01/12 00:24:10;;;;;;;13.93;9.57;;;;;;;2.62;69.68;101420.97;345169;28;1021;-71
2022/01/12 00:25:03;;;;;;;13.35;9.05;;;;;;;2.64;69.91;101408.19;345209;28;1129;-71
2022/01/12 00:25:33;;;;;;;13.45;9.10;;;;;;;2.74;69.80;101410.19;345078;28;1094;-71
2022/01/12 00:26:05;;;;;;;14.93;9.90;;;;;;;2.76;69.60;101406.81;345217;28;1096;-71
2022/01/12 00:26:37;;;;;;;14.73;9.40;;;;;;;2.80;69.74;101403.50;345302;28;1077;-71
2022/01/12 00:33:15;;;;;;;15.75;9.55;;;;;;;2.46;69.01;101414.53;343886;28;966;-72
2022/01/12 00:33:27;;;;;;;15.00;10.00;;;;;;;2.39;69.11;101418.63;343438;28;978;-71
2022/01/12 00:33:39;;;;;;;15.27;10.00;;;;;;;2.40;68.70;101420.34;343544;28;1333;-71
2022/01/12 00:33:52;;;;;;;14.43;9.52;;;;;;;2.38;69.48;101416.88;343799;28;1288;-71
2022/01/12 00:34:06;;;;;;;14.40;9.40;;;;;;;2.42;69.14;101416.97;343438;28;1059;-71
2022/01/12 00:34:18;;;;;;;14.85;9.77;;;;;;;2.42;69.33;101419.53;343382;28;1032;-71
2022/01/12 00:34:31;;;;;;;15.30;10.27;;;;;;;2.40;69.61;101416.91;343480;28;1086;-72
2022/01/12 00:34:43;;;;;;;15.65;10.25;;;;;;;2.38;68.91;101416.88;343544;28;1072;-71
2022/01/12 00:34:55;;;;;;;15.10;9.40;;;;;;;2.35;69.23;101421.91;343599;28;1158;-72
2022/01/12 00:35:07;;;;;;;15.48;9.10;;;;;;;2.30;68.73;101412.34;343495;28;1040;-71
2022/01/12 00:35:19;;;;;;;16.35;9.73;;;;;;;2.28;69.12;101412.28;343489;28;1045;-71
2022/01/12 00:35:31;;;;;;;16.33;10.20;;;;;;;2.25;69.54;101414.75;343480;28;1048;-71
2022/01/12 00:35:49;;;;;;;16.20;10.05;;;;;;;2.27;69.25;101412.25;343491;28;1150;-71
2022/01/12 00:36:01;;;;;;;15.98;9.15;;;;;;;2.17;69.42;101421.34;343484;28;1024;-71
2022/01/12 00:36:13;;;;;;;15.45;9.00;;;;;;;2.17;69.11;101412.00;343536;28;1035;-72
2022/01/12 00:36:25;;;;;;;15.98;9.48;;;;;;;2.14;69.56;101421.28;343488;28;1157;-71
2022/01/12 00:36:37;;;;;;;16.80;10.25;;;;;;;2.11;69.42;101416.03;343717;28;1202;-71
2022/01/12 00:36:49;;;;;;;17.13;10.55;;;;;;;2.13;69.57;101419.53;345183;28;1046;-71
2022/01/12 00:37:01;;;;;;;15.27;9.75;;;;;;;2.12;69.91;101417.78;345255;28;1095;-72
2022/01/12 00:37:13;;;;;;;14.80;9.23;;;;;;;2.13;69.80;101415.28;345169;28;1329;-71
2022/01/12 00:37:25;;;;;;;15.50;9.82;;;;;;;2.13;69.91;101420.41;345143;28;1074;-72
2022/01/12 00:37:37;;;;;;;15.63;10.15;;;;;;;2.14;70.18;101416.16;345195;28;1078;-71
2022/01/12 00:37:49;;;;;;;16.42;10.48;;;;;;;2.13;69.92;101419.53;345164;28;1066;-71
2022/01/12 00:38:02;;;;;;;16.13;10.23;;;;;;;2.14;69.44;101413.59;345162;28;1215;-71
2022/01/12 00:38:16;;;;;;;14.88;9.73;;;;;;;2.10;69.70;101416.88;345262;28;1248;-72
2022/01/12 00:38:29;;;;;;;14.60;9.95;;;;;;;2.12;69.62;101417.78;345275;28;1247;-72
2022/01/12 00:38:41;;;;;;;14.63;10.13;;;;;;;2.13;69.60;101416.97;345156;28;1042;-72
2022/01/12 00:38:54;;;;;;;15.93;9.93;;;;;;;2.11;69.67;101418.59;345140;28;1271;-72
2022/01/12 00:39:07;;;;;;;15.12;9.22;;;;;;;2.09;70.11;101422.81;345018;28;1127;-72
2022/01/12 00:39:20;;;;;;;15.18;9.57;;;;;;;2.08;69.68;101421.09;344916;28;1157;-72
2022/01/12 00:39:32;;;;;;;16.63;10.32;;;;;;;2.03;70.10;101425.19;344892;28;1271;-72
2022/01/12 00:39:48;;;;;;;16.38;9.88;;;;;;;2.04;70.49;101414.13;343466;28;1341;-73
2022/01/12 00:40:00;;;;;;;15.70;9.25;;;;;;;2.04;69.85;101419.25;341035;28;1717;-69
2022/01/12 00:40:12;;;;;;;14.68;9.25;;;;;;;2.01;70.85;101420.00;341251;28;1262;-69
2022/01/12 00:40:24;;;;;;;14.57;9.43;;;;;;;2.02;70.35;101415.78;342260;28;1072;-69
2022/01/12 00:40:42;;;;;;;15.45;10.20;;;;;;;2.07;70.49;101419.34;341383;28;1899;-70
2022/01/12 00:40:57;;;;;;;15.32;9.98;;;;;;;2.08;70.23;101415.97;342107;28;1064;-69
2022/01/12 00:41:09;;;;;;;14.40;9.18;;;;;;;2.07;70.29;101417.63;340774;29;1321;-69
2022/01/12 00:41:22;;;;;;;14.50;9.27;;;;;;;2.08;70.83;101415.97;341589;28;1262;-69
2022/01/12 00:41:37;;;;;;;14.60;9.82;;;;;;;2.04;70.34;101415.00;342246;28;1729;-69
2022/01/12 00:41:50;;;;;;;15.38;10.10;;;;;;;2.03;70.39;101413.25;343062;28;1250;-70
2022/01/12 00:42:02;;;;;;;16.13;9.93;;;;;;;2.00;70.53;101415.72;344240;28;1272;-69
2022/01/12 00:42:14;;;;;;;17.02;9.85;;;;;;;2.00;71.77;101416.59;345134;28;1989;-69
2022/01/12 00:42:28;;;;;;;17.67;10.10;;;;;;;2.01;72.02;101420.00;345207;28;1212;-69
2022/01/12 00:42:40;;;;;;;16.83;10.57;;;;;;;2.02;72.21;101421.78;345139;28;1266;-69
2022/01/12 00:42:52;;;;;;;17.05;10.20;;;;;;;2.04;71.90;101419.25;345169;28;1172;-69
2022/01/12 00:43:05;;;;;;;16.50;9.82;;;;;;;2.06;71.99;101422.75;344081;28;1397;-70
2022/01/12 00:43:18;;;;;;;15.52;9.60;;;;;;;2.08;72.08;101415.97;343742;28;1067;-69
2022/01/12 00:43:33;;;;;;;16.40;10.15;;;;;;;2.12;72.37;101412.66;343842;28;1285;-71
2022/01/12 00:43:49;;;;;;;16.58;10.25;;;;;;;2.14;72.13;101411.88;343852;28;1046;-69
2022/01/12 00:44:06;;;;;;;14.35;9.43;;;;;;;2.16;72.08;101417.94;344175;28;1542;-69
2022/01/12 00:44:32;;;;;;;13.45;8.93;;;;;;;2.18;72.64;101412.84;343854;28;1340;-69
2022/01/12 00:44:46;;;;;;;15.13;10.40;;;;;;;2.26;71.97;101419.06;343755;28;1051;-69
2022/01/12 00:45:01;;;;;;;14.65;10.05;;;;;;;2.28;71.78;101420.00;344236;28;1307;-69
2022/01/12 00:45:13;;;;;;;14.70;9.43;;;;;;;2.29;72.21;101419.16;344407;28;1909;-70
2022/01/12 00:45:25;;;;;;;14.98;9.40;;;;;;;2.33;71.97;101418.41;345079;28;1061;-69
2022/01/12 00:45:42;;;;;;;13.88;9.07;;;;;;;2.33;72.17;101413.28;345212;28;1080;-69
2022/01/12 00:45:55;;;;;;;15.48;9.82;;;;;;;2.34;71.78;101420.16;344375;28;1726;-69
2022/01/12 00:46:10;;;;;;;16.13;9.55;;;;;;;2.33;72.21;101417.56;343967;28;1042;-70
2022/01/12 00:46:22;;;;;;;15.70;9.13;;;;;;;2.36;71.68;101418.53;343926;28;1016;-69
2022/01/12 00:46:35;;;;;;;15.18;9.25;;;;;;;2.38;72.10;101411.72;344070;28;1937;-69
2022/01/12 00:46:47;;;;;;;14.90;9.35;;;;;;;2.39;71.37;101418.63;345234;28;1066;-70
2022/01/12 00:47:00;;;;;;;14.27;9.35;;;;;;;2.42;71.89;101411.84;345072;28;1951;-69
2022/01/12 00:47:12;;;;;;;14.68;9.40;;;;;;;2.41;72.01;101416.06;345127;28;1078;-69
2022/01/12 00:47:24;;;;;;;16.13;9.43;;;;;;;2.38;72.06;101418.56;344528;28;2279;-70
2022/01/12 00:47:36;;;;;;;16.55;10.15;;;;;;;2.37;72.60;101420.28;343794;28;1860;-70
2022/01/12 00:47:48;;;;;;;15.88;10.13;;;;;;;2.35;72.05;101419.31;344704;28;1066;-69
2022/01/12 00:48:00;;;;;;;15.35;9.73;;;;;;;2.34;71.97;101422.75;344971;28;1323;-69
2022/01/12 00:48:17;;;;;;;14.60;9.85;;;;;;;2.36;72.28;101413.38;344507;28;1550;-69
2022/01/12 00:48:29;;;;;;;14.05;9.88;;;;;;;2.37;71.96;101422.84;344510;28;2720;-69
2022/01/12 00:48:41;;;;;;;14.13;9.30;;;;;;;2.38;72.10;101416.00;343980;28;1018;-70
2022/01/12 00:48:55;;;;;;;14.15;8.98;;;;;;;2.37;71.61;101420.28;344047;28;1019;-69
2022/01/12 00:49:07;;;;;;;14.55;9.30;;;;;;;2.34;71.92;101420.16;344094;28;1908;-70
2022/01/12 00:49:19;;;;;;;14.82;9.65;;;;;;;2.33;71.73;101418.41;344136;28;2112;-70
2022/01/12 00:49:31;;;;;;;14.57;9.30;;;;;;;2.29;71.96;101420.84;344309;28;1654;-70
2022/01/12 00:49:44;;;;;;;14.48;8.82;;;;;;;2.26;72.06;101421.63;344046;28;793;-70
2022/01/12 00:49:56;;;;;;;14.63;9.10;;;;;;;2.27;72.05;101420.81;344085;28;1874;-69
2022/01/12 00:50:09;;;;;;;15.63;9.40;;;;;;;2.22;72.58;101419.81;344382;28;2012;-69
2022/01/12 00:50:21;;;;;;;15.63;9.70;;;;;;;2.21;71.98;101423.19;345260;28;740;-69
2022/01/12 00:50:33;;;;;;;16.23;10.18;;;;;;;2.19;72.57;101419.69;344988;28;1063;-70
2022/01/12 00:50:46;;;;;;;15.40;10.00;;;;;;;2.14;72.58;101421.28;344905;28;1018;-70
2022/01/12 00:50:59;;;;;;;14.85;9.48;;;;;;;2.13;72.32;101420.41;343738;28;1342;-69
2022/01/12 00:51:11;;;;;;;16.00;9.38;;;;;;;2.11;72.46;101416.03;342824;28;2077;-70
2022/01/12 00:51:30;;;;;;;16.08;9.73;;;;;;;2.10;72.46;101415.19;342957;28;1816;-69
2022/01/12 00:51:42;;;;;;;16.13;10.25;;;;;;;2.14;71.54;101416.16;343491;28;1317;-69
2022/01/12 00:51:56;;;;;;;16.33;10.13;;;;;;;2.14;72.15;101417.00;343339;28;1385;-70
2022/01/12 00:52:08;;;;;;;15.82;9.63;;;;;;;2.12;71.66;101422.94;343818;28;1170;-69
2022/01/12 00:52:19;;;;;;;15.82;9.32;;;;;;;2.06;71.41;101413.34;342780;28;1684;-69
2022/01/12 00:52:31;;;;;;;16.90;9.55;;;;;;;2.04;71.18;101419.25;342601;28;1059;-69
2022/01/12 00:52:44;;;;;;;17.92;10.20;;;;;;;2.04;70.94;101415.00;342308;28;1081;-70
2022/01/12 00:52:56;;;;;;;16.83;9.90;;;;;;;2.04;70.52;101424.38;342085;28;1345;-70
2022/01/12 00:53:08;;;;;;;15.10;9.05;;;;;;;1.97;70.57;101415.63;343763;28;1221;-69
2022/01/12 00:53:20;;;;;;;15.30;9.13;;;;;;;2.00;71.06;101418.28;343950;28;1034;-69
2022/01/12 00:53:32;;;;;;;15.32;9.60;;;;;;;1.97;70.61;101419.06;343811;28;1083;-69
2022/01/12 00:53:44;;;;;;;14.20;9.18;;;;;;;1.97;69.69;101421.63;343750;28;1066;-69
2022/01/12 00:53:58;;;;;;;14.35;8.80;;;;;;;1.91;70.13;101418.88;343795;28;1551;-69
2022/01/12 00:54:10;;;;;;;15.15;9.18;;;;;;;1.88;70.18;101421.34;344475;28;1712;-69
2022/01/12 00:54:25;;;;;;;16.30;9.65;;;;;;;1.85;69.87;101416.13;344538;28;1528;-70
2022/01/12 00:54:37;;;;;;;16.40;10.07;;;;;;;1.85;70.47;101407.53;344453;28;1859;-70
2022/01/12 00:54:49;;;;;;;14.40;9.05;;;;;;;1.84;70.70;101416.94;344987;28;1058;-69
2022/01/12 00:55:02;;;;;;;13.65;8.63;;;;;;;1.85;70.47;101411.00;344921;28;1370;-69
2022/01/12 00:55:14;;;;;;;14.60;9.38;;;;;;;1.85;71.23;101418.69;343305;28;1237;-69
2022/01/12 00:55:26;;;;;;;15.27;9.90;;;;;;;1.87;71.13;101411.03;342593;28;1344;-69
2022/01/12 00:55:39;;;;;;;15.52;9.80;;;;;;;1.75;71.68;101411.50;342577;28;1111;-69
2022/01/12 00:55:51;;;;;;;16.00;9.23;;;;;;;1.73;71.57;101408.91;342209;28;1297;-69
2022/01/12 00:56:03;;;;;;;15.60;9.43;;;;;;;1.75;71.58;101408.94;343292;28;1312;-70
2022/01/12 00:56:15;;;;;;;15.10;10.02;;;;;;;1.78;72.03;101409.06;343557;28;1052;-69
2022/01/12 00:56:27;;;;;;;15.90;10.30;;;;;;;1.77;71.90;101409.88;343591;28;1173;-70
2022/01/12 00:56:40;;;;;;;16.60;10.27;;;;;;;1.76;71.42;101408.13;343637;28;1024;-69
2022/01/12 00:56:54;;;;;;;14.40;9.40;;;;;;;1.74;71.57;101405.53;343529;28;1079;-69
2022/01/12 00:57:07;;;;;;;13.38;9.05;;;;;;;1.75;71.79;101411.50;344671;28;1739;-70
2022/01/12 00:57:19;;;;;;;14.20;9.30;;;;;;;1.73;71.65;101408.03;345137;28;1296;-69
2022/01/12 00:57:31;;;;;;;14.88;9.57;;;;;;;1.76;71.05;101408.13;343625;28;1839;-69
2022/01/12 00:57:43;;;;;;;14.88;9.43;;;;;;;1.72;71.80;101406.31;344378;28;1197;-69
2022/01/12 00:57:58;;;;;;;14.70;9.10;;;;;;;1.67;71.85;101408.72;343587;28;1280;-69
2022/01/12 00:58:10;;;;;;;14.55;9.15;;;;;;;1.63;71.99;101406.00;343596;28;1059;-70
2022/01/12 00:58:22;;;;;;;14.52;9.43;;;;;;;1.65;71.95;101409.47;343471;28;1035;-69
2022/01/12 00:58:34;;;;;;;16.30;9.90;;;;;;;1.65;71.77;101409.47;343641;28;1051;-70
2022/01/12 00:58:47;;;;;;;16.58;9.75;;;;;;;1.65;71.65;101410.38;343678;28;1163;-69
2022/01/12 00:58:58;;;;;;;16.02;9.82;;;;;;;1.62;71.12;101412.81;343937;28;1353;-69
2022/01/12 00:59:10;;;;;;;16.20;9.45;;;;;;;1.63;71.61;101411.13;343499;28;1020;-69
2022/01/12 00:59:22;;;;;;;16.85;9.65;;;;;;;1.65;71.11;101412.94;343414;28;1272;-70
2022/01/12 00:59:39;;;;;;;14.88;9.45;;;;;;;1.63;71.38;101412.03;345067;28;1140;-70
2022/01/12 00:59:52;;;;;;;14.27;8.93;;;;;;;1.57;70.79;101412.69;343358;28;1906;-69
2022/01/12 01:00:05;;;;;;;15.48;9.07;;;;;;;1.54;70.96;101404.88;344501;28;1768;-69
2022/01/12 01:00:20;;;;;;;15.73;9.43;;;;;;;1.55;71.50;101404.06;344915;28;1075;-70
2022/01/12 01:00:33;;;;;;;15.40;9.48;;;;;;;1.53;70.72;101410.84;344837;28;1507;-69
2022/01/12 01:00:45;;;;;;;16.00;9.90;;;;;;;1.55;70.46;101410.88;344894;28;1289;-69
2022/01/12 01:00:57;;;;;;;16.38;10.07;;;;;;;1.54;70.86;101404.88;344839;28;1370;-69
2022/01/12 01:01:09;;;;;;;16.25;9.68;;;;;;;1.53;70.61;101405.72;344076;28;2252;-70
2022/01/12 01:01:22;;;;;;;15.88;9.55;;;;;;;1.52;70.70;101409.09;343821;28;1127;-69
2022/01/12 01:01:34;;;;;;;14.63;9.38;;;;;;;1.49;70.94;101409.00;343712;28;1317;-69
2022/01/12 01:01:46;;;;;;;14.13;9.63;;;;;;;1.48;71.26;101408.94;343816;28;1181;-69
2022/01/12 01:01:58;;;;;;;13.85;9.70;;;;;;;1.48;70.46;101409.81;344287;28;1242;-69
2022/01/12 01:02:13;;;;;;;12.77;9.15;;;;;;;1.46;70.86;101408.88;344634;28;1737;-69
2022/01/12 01:02:25;;;;;;;13.25;8.68;;;;;;;1.47;71.38;101413.22;345138;28;1323;-70
2022/01/12 01:02:37;;;;;;;13.90;8.55;;;;;;;1.45;70.75;101407.16;344966;28;1159;-69
2022/01/12 01:02:49;;;;;;;14.30;8.65;;;;;;;1.46;70.99;101411.44;345206;28;1276;-69
2022/01/12 01:03:02;;;;;;;14.98;9.05;;;;;;;1.44;71.79;101410.53;345055;28;1259;-70
2022/01/12 01:03:15;;;;;;;15.95;9.15;;;;;;;1.47;71.48;101409.75;344310;28;1693;-70
2022/01/12 01:03:29;;;;;;;15.75;9.07;;;;;;;1.43;71.25;101408.81;344579;28;1942;-69
2022/01/12 01:03:41;;;;;;;15.93;9.15;;;;;;;1.40;70.92;101404.44;344039;28;2092;-70
2022/01/12 01:03:54;;;;;;;15.32;8.95;;;;;;;1.38;71.29;101406.06;344167;28;1977;-69
2022/01/12 01:04:07;;;;;;;14.45;9.00;;;;;;;1.35;70.94;101405.13;343769;28;1556;-69
2022/01/12 01:04:19;;;;;;;14.73;9.15;;;;;;;1.35;70.81;101407.69;343733;28;1038;-69
2022/01/12 01:04:31;;;;;;;14.35;9.23;;;;;;;1.33;71.62;101411.88;344169;28;1442;-70
2022/01/12 01:04:44;;;;;;;15.48;9.05;;;;;;;1.31;70.79;101406.72;345080;28;1046;-70
2022/01/12 01:04:56;;;;;;;15.63;8.85;;;;;;;1.31;70.94;101408.38;344775;28;1074;-70
2022/01/12 01:05:09;;;;;;;16.58;9.52;;;;;;;1.28;71.33;101413.41;343627;28;1091;-69
2022/01/12 01:05:22;;;;;;;15.77;9.43;;;;;;;1.26;72.08;101417.63;343545;28;1524;-69
2022/01/12 01:05:35;;;;;;;15.38;9.32;;;;;;;1.23;72.41;101404.69;343996;28;2128;-69
2022/01/12 01:05:47;;;;;;;15.57;9.65;;;;;;;1.23;71.74;101409.81;344794;28;1257;-70
2022/01/12 01:05:59;;;;;;;14.88;9.18;;;;;;;1.23;71.84;101407.25;345256;28;1264;-70
2022/01/12 01:06:12;;;;;;;14.35;8.85;;;;;;;1.20;71.05;101408.88;346121;28;1062;-69
2022/01/12 01:06:24;;;;;;;14.15;8.80;;;;;;;1.25;71.57;101403.03;345196;28;1257;-69
2022/01/12 01:06:36;;;;;;;14.68;8.73;;;;;;;1.20;71.03;101408.88;342627;28;2233;-69
2022/01/12 01:06:50;;;;;;;14.65;9.18;;;;;;;1.23;71.82;101405.59;342219;28;2212;-69
2022/01/12 01:07:03;;;;;;;15.40;9.80;;;;;;;1.23;71.51;101409.81;343405;28;1351;-69
2022/01/12 01:07:17;;;;;;;13.52;8.85;;;;;;;1.20;71.40;101410.59;343484;28;1142;-70
2022/01/12 01:07:29;;;;;;;14.02;8.65;;;;;;;1.22;71.42;101403.81;343828;28;1014;-70
2022/01/12 01:07:41;;;;;;;15.40;8.80;;;;;;;1.19;70.85;101404.59;344591;28;1145;-69
2022/01/12 01:07:53;;;;;;;15.15;8.88;;;;;;;1.19;71.38;101403.75;344817;28;1230;-69
2022/01/12 01:08:06;;;;;;;15.27;9.32;;;;;;;1.17;71.37;101403.69;344582;28;1216;-70
2022/01/12 01:08:18;;;;;;;15.05;9.15;;;;;;;1.14;71.10;101403.56;344588;28;1063;-69
2022/01/12 01:08:30;;;;;;;15.85;9.00;;;;;;;1.15;70.72;101401.88;344283;28;2292;-70
2022/01/12 01:08:43;;;;;;;14.75;8.70;;;;;;;1.16;71.23;101404.47;344152;28;1166;-69